Brokaw, Wisconsin
Current Conditions -  °F | °C
As of 5:54 AM on Sunday 21 Dec 2014 (Local Time) from KAUW Reporting Station
Haze Haze  
Wind Chill: 22°   Ceiling: 500
Heat Index: 29°   Visibility: 3mi
Dew Point: 26°   Wind: 7mph
Humidity: 89%   Direction: 140°SE
Pressure: 30.06"   Gusts: NA
Location:  45.03°N, 89.65°W
Report Text: KAUW 211154Z AUTO 14006KT 3SM BR OVC005 M02/M03 A3006 RMK AO2 SLP199 T10171033 11017 21022 56016
Loading
Personal Weather Stations






























Interactive Weather Map New forecast layout! Learn more

10-Day Weather Forecast

Advertisements
Track Severe Weather on mobile